PDT,Max TemperatureF,Mean TemperatureF,Min TemperatureF,Max Dew PointF,MeanDew PointF,Min DewpointF,Max Humidity, Mean Humidity, Min Humidity, Max Sea Level PressureIn, Mean Sea Level PressureIn, Min Sea Level PressureIn, Max VisibilityMiles, Mean VisibilityMiles, Min VisibilityMiles, Max Wind SpeedMPH, Mean Wind SpeedMPH, Max Gust SpeedMPH,PrecipitationIn, CloudCover, Events, WindDirDegrees
2013-5-1,89,75,60,49,34,30,44,28,12,30.05,29.95,29.80,10,10,7,10,4,16,0.00,0,,284
2013-5-2,93,77,61,48,42,31,56,34,11,30.16,30.09,30.04,10,9,6,14,5,18,0.00,0,,256
2013-5-3,95,79,63,46,39,27,52,31,10,30.04,29.90,29.76,10,10,8,14,6,18,0.00,0,,311
2013-5-4,94,79,64,44,39,35,48,31,13,29.76,29.63,29.51,10,10,7,15,5,18,0.00,2,,318
2013-5-5,78,69,60,45,41,31,51,39,26,29.83,29.71,29.60,10,10,10,21,12,24,0.00,6,,173
2013-5-6,78,71,63,49,44,41,52,41,29,29.96,29.87,29.83,10,10,10,18,7,23,T,7,Rain,243
2013-5-7,71,64,57,54,51,45,86,65,44,30.04,30.00,29.96,10,10,9,13,5,16,0.05,6,Rain,184
2013-5-8,79,69,59,56,52,47,84,60,35,30.10,30.05,30.01,10,9,4,15,5,20,0.02,6,Rain,327
2013-5-9,84,71,57,54,50,48,77,55,33,30.10,30.07,30.03,10,10,10,14,8,20,0.00,4,,306
2013-5-10,89,75,61,58,53,51,72,51,29,30.14,30.09,30.02,10,10,10,10,5,14,0.00,2,,308
2013-5-11,98,83,67,59,57,50,73,49,24,30.09,30.04,29.97,10,10,7,12,5,16,0.00,2,,302
2013-5-12,102,86,70,59,53,43,61,38,15,30.10,30.01,29.91,10,10,9,16,7,20,0.00,2,,295
2013-5-13,101,84,66,54,48,43,45,31,16,30.03,29.94,29.85,10,10,10,16,7,22,0.00,1,,304
2013-5-14,93,81,68,60,51,44,60,40,20,29.92,29.88,29.84,10,10,10,21,9,25,0.00,2,,303
2013-5-15,92,76,60,48,45,35,60,38,15,29.99,29.94,29.88,10,10,10,21,10,24,0.00,3,,311
2013-5-16,76,67,58,49,47,45,62,49,36,30.00,29.95,29.91,10,10,10,23,12,26,0.00,5,,312
2013-5-17,82,69,55,46,40,30,72,45,17,30.00,29.96,29.93,10,10,10,18,13,24,0.00,2,,310
2013-5-18,84,69,53,44,38,27,64,39,13,30.10,30.04,30.00,10,10,10,18,10,23,0.00,1,,305
2013-5-19,88,74,60,48,43,35,64,42,19,30.06,29.99,29.91,10,10,10,14,8,21,0.00,0,,310
2013-5-20,93,77,61,43,39,34,44,30,15,29.99,29.94,29.88,10,10,10,13,5,16,0.00,1,,259
2013-5-21,92,79,65,45,38,28,45,28,11,29.92,29.86,29.79,10,10,10,20,7,25,0.00,3,,308
2013-5-22,74,64,53,40,28,11,59,34,9,29.96,29.89,29.84,10,10,9,26,14,32,0.00,1,,307
2013-5-23,77,63,49,40,34,25,61,38,15,29.95,29.92,29.88,10,10,10,16,9,21,0.00,0,,306
2013-5-24,83,68,53,42,37,28,64,40,15,29.98,29.93,29.87,10,10,10,15,6,21,0.00,3,,294
2013-5-25,84,69,54,44,36,28,55,35,14,29.97,29.94,29.91,10,10,10,18,9,22,0.00,2,,304
2013-5-26,82,69,55,48,46,41,66,47,28,30.06,30.02,29.98,10,10,10,21,14,26,0.00,2,,309
2013-5-27,80,68,55,52,47,41,72,50,27,30.07,30.02,29.96,10,10,10,22,14,29,0.00,4,,308
2013-5-28,84,73,61,54,51,47,72,50,28,29.97,29.90,29.83,10,10,9,25,15,31,T,4,,307
2013-5-29,87,75,62,54,49,35,67,46,25,29.91,29.86,29.79,10,10,10,21,12,29,0.00,2,,307
2013-5-30,89,74,58,50,44,31,64,39,14,29.93,29.89,29.85,10,10,10,17,8,26,0.00,1,,308
2013-5-31,92,76,60,46,43,32,52,35,18,29.97,29.91,29.86,10,10,10,13,7,17,0.00,0,,309